»·PEaware :: N420FJ KSNA-KSBD

N420FJ :: KSNA-KSBD

FLIGHT INFORMATION

Flight Status: Arrived
Operator: Privately registered:
United States
More flights under this callsign
Pilot: Julian G. (20224)
Aircraft: BEECH AIRCRAFT BONANZA
(BE36)
More flights by this aircraft type
Origin: KSNA John Wayne-Orange Co
United States
Destination: KSBD San Bernardino Intl
United States
More flights between these airports :: More routes between these airports
Route: SLI V8 PDZ
File this flight plan on PilotEdge
Remarks: I 4
Altitude:
(Current/Filed)
5,000ft
Speed:
(Current/Filed)
135kts
Departed: 08-Oct-18 07:39 PM
Arrived: 08-Oct-18 08:13 PM
Distance/Time
Traveled:
41nm/0:34
Distance/Time
To Go:
Arrived

Flight Plot

Page will automatically refresh every two minutes.


Map Options




Map Legend


Flown Route
Filed Route
Departure Airport
Arrival Airport
Navaid (VOR, NDB)
Fix

Horizontal Profiles

Position Reports

Time Latitude Longitude Heading Altitude Ground
Speed
08-Oct-18 19:25 33.665718 -117.873666 249 60ft 0kts
08-Oct-18 19:26 33.665718 -117.873666 249 60ft 0kts
08-Oct-18 19:27 33.665718 -117.873666 249 60ft 0kts
08-Oct-18 19:28 33.665718 -117.873666 249 60ft 0kts
08-Oct-18 19:29 33.665718 -117.873666 249 60ft 0kts
08-Oct-18 19:30 33.665718 -117.873666 249 60ft 0kts
08-Oct-18 19:31 33.665718 -117.873666 249 60ft 0kts
08-Oct-18 19:32 33.665718 -117.873666 249 60ft 0kts
08-Oct-18 19:33 33.665718 -117.873666 249 60ft 0kts
08-Oct-18 19:34 33.666003 -117.873742 26 60ft 7kts
08-Oct-18 19:35 33.668116 -117.871975 39 60ft 14kts
08-Oct-18 19:36 33.671457 -117.868597 33 60ft 20kts
08-Oct-18 19:37 33.674721 -117.866706 27 60ft 14kts
08-Oct-18 19:38 33.678657 -117.864229 26 60ft 20kts
08-Oct-18 19:39 33.679917 -117.863628 293 60ft 0kts
08-Oct-18 19:40 33.680019 -117.863900 291 60ft 7kts
08-Oct-18 19:41 33.667803 -117.872188 211 390ft 100kts
08-Oct-18 19:42 33.648572 -117.901935 232 1532ft 121kts
08-Oct-18 19:43 33.628219 -117.935495 232 2655ft 124kts
08-Oct-18 19:44 33.608796 -117.966712 232 3927ft 112kts
08-Oct-18 19:45 33.601889 -117.997618 320 4904ft 130kts
08-Oct-18 19:46 33.638958 -118.017150 346 4901ft 158kts
08-Oct-18 19:47 33.680529 -118.027728 346 4896ft 157kts
08-Oct-18 19:48 33.718818 -118.037692 345 4897ft 155kts
08-Oct-18 19:49 33.756528 -118.047582 345 4897ft 155kts
08-Oct-18 19:50 33.786968 -118.035358 68 4901ft 157kts
08-Oct-18 19:51 33.799192 -117.992387 72 4895ft 157kts
08-Oct-18 19:52 33.810516 -117.949202 72 4895ft 158kts
08-Oct-18 19:53 33.822083 -117.904558 73 4894ft 160kts
08-Oct-18 19:54 33.834699 -117.855815 72 4892ft 155kts
08-Oct-18 19:55 33.847283 -117.806977 72 4892ft 154kts
08-Oct-18 19:56 33.859463 -117.758044 73 4891ft 155kts
08-Oct-18 19:57 33.872260 -117.708300 71 4890ft 157kts
08-Oct-18 19:58 33.885048 -117.658846 70 4949ft 154kts
08-Oct-18 19:59 33.897692 -117.609867 69 4957ft 156kts
08-Oct-18 20:00 33.910334 -117.560863 70 4956ft 157kts
08-Oct-18 20:01 33.927533 -117.514384 50 4957ft 155kts
08-Oct-18 20:02 33.952451 -117.473227 51 4960ft 155kts
08-Oct-18 20:03 33.977223 -117.432004 51 4961ft 155kts
08-Oct-18 20:04 33.996929 -117.385964 61 4455ft 174kts
08-Oct-18 20:05 34.016168 -117.339394 62 3959ft 146kts
08-Oct-18 20:06 34.034072 -117.295864 62 3966ft 156kts
08-Oct-18 20:07 34.052206 -117.252263 62 3963ft 154kts
08-Oct-18 20:08 34.071088 -117.207372 62 3990ft 151kts
08-Oct-18 20:09 34.090149 -117.162428 62 3991ft 151kts
08-Oct-18 20:10 34.112032 -117.120124 22 4057ft 137kts
08-Oct-18 20:11 34.128974 -117.139951 242 4045ft 116kts
08-Oct-18 20:12 34.113435 -117.172458 248 2426ft 112kts
08-Oct-18 20:13 34.104681 -117.202474 250 1466ft 85kts
08-Oct-18 20:14 34.097847 -117.225874 256 1135ft 56kts
08-Oct-18 20:15 34.098630 -117.227086 38 1135ft 0kts
08-Oct-18 20:16 34.098881 -117.226830 39 1135ft 9kts
08-Oct-18 20:17 34.101407 -117.224886 20 1135ft 11kts
08-Oct-18 20:18 34.101563 -117.224775 60 1135ft 0kts

Navigation Log

Ident Type
Flight plan parsing failed, navigation log unavailable